sensor_id;sensor_type;location;lat;lon;timestamp;pressure;altitude;pressure_sealevel;temperature;humidity
35908;BME280;22003;50.320;8.054;2024-03-22T00:02:05;100375.03;;;8.03;100.00
35908;BME280;22003;50.320;8.054;2024-03-22T00:04:30;100374.41;;;7.83;100.00
35908;BME280;22003;50.320;8.054;2024-03-22T00:06:56;100363.41;;;7.75;100.00
35908;BME280;22003;50.320;8.054;2024-03-22T00:09:21;100363.41;;;7.75;100.00
35908;BME280;22003;50.320;8.054;2024-03-22T00:11:46;100358.16;;;7.75;100.00
35908;BME280;22003;50.320;8.054;2024-03-22T00:14:12;100358.25;;;8.04;100.00
35908;BME280;22003;50.320;8.054;2024-03-22T00:16:37;100346.50;;;7.79;100.00
35908;BME280;22003;50.320;8.054;2024-03-22T00:19:03;100315.78;;;7.78;100.00
35908;BME280;22003;50.320;8.054;2024-03-22T00:21:28;100338.47;;;7.81;100.00
35908;BME280;22003;50.320;8.054;2024-03-22T00:23:55;100309.00;;;7.43;100.00
35908;BME280;22003;50.320;8.054;2024-03-22T00:26:20;100323.38;;;7.37;100.00
35908;BME280;22003;50.320;8.054;2024-03-22T00:28:46;100341.75;;;7.38;100.00
35908;BME280;22003;50.320;8.054;2024-03-22T00:31:11;100336.91;;;7.31;100.00
35908;BME280;22003;50.320;8.054;2024-03-22T00:33:37;100334.50;;;7.26;100.00
35908;BME280;22003;50.320;8.054;2024-03-22T00:36:02;100342.94;;;7.33;100.00
35908;BME280;22003;50.320;8.054;2024-03-22T00:38:27;100337.50;;;7.36;100.00
35908;BME280;22003;50.320;8.054;2024-03-22T00:40:53;100325.41;;;7.48;100.00
35908;BME280;22003;50.320;8.054;2024-03-22T00:43:19;100327.19;;;7.31;100.00
35908;BME280;22003;50.320;8.054;2024-03-22T00:45:45;100325.06;;;7.38;100.00
35908;BME280;22003;50.320;8.054;2024-03-22T00:48:10;100327.28;;;7.30;100.00
35908;BME280;22003;50.320;8.054;2024-03-22T00:50:35;100314.34;;;7.09;100.00
35908;BME280;22003;50.320;8.054;2024-03-22T00:53:01;100290.03;;;6.88;100.00
35908;BME280;22003;50.320;8.054;2024-03-22T00:55:28;100293.41;;;6.75;100.00
35908;BME280;22003;50.320;8.054;2024-03-22T00:57:53;100304.41;;;6.66;100.00
35908;BME280;22003;50.320;8.054;2024-03-22T01:00:19;100275.72;;;6.44;100.00
35908;BME280;22003;50.320;8.054;2024-03-22T01:02:44;100311.41;;;6.67;100.00
35908;BME280;22003;50.320;8.054;2024-03-22T01:05:10;100313.94;;;6.68;100.00
35908;BME280;22003;50.320;8.054;2024-03-22T01:07:36;100315.31;;;6.75;100.00
35908;BME280;22003;50.320;8.054;2024-03-22T01:10:02;100321.97;;;6.98;100.00
35908;BME280;22003;50.320;8.054;2024-03-22T01:12:27;100317.34;;;6.70;100.00
35908;BME280;22003;50.320;8.054;2024-03-22T01:14:53;100318.97;;;6.40;100.00
35908;BME280;22003;50.320;8.054;2024-03-22T01:17:19;100318.50;;;6.14;100.00
35908;BME280;22003;50.320;8.054;2024-03-22T01:19:44;100318.28;;;6.01;100.00
35908;BME280;22003;50.320;8.054;2024-03-22T01:22:09;100312.59;;;5.92;100.00
35908;BME280;22003;50.320;8.054;2024-03-22T01:24:35;100305.47;;;5.94;100.00
35908;BME280;22003;50.320;8.054;2024-03-22T01:27:00;100308.91;;;5.96;100.00
35908;BME280;22003;50.320;8.054;2024-03-22T01:29:25;100307.09;;;6.31;100.00
35908;BME280;22003;50.320;8.054;2024-03-22T01:31:52;100300.16;;;6.30;100.00
35908;BME280;22003;50.320;8.054;2024-03-22T01:34:18;100292.19;;;6.14;100.00
35908;BME280;22003;50.320;8.054;2024-03-22T01:36:43;100287.38;;;6.05;100.00
35908;BME280;22003;50.320;8.054;2024-03-22T01:39:08;100280.06;;;6.12;100.00
35908;BME280;22003;50.320;8.054;2024-03-22T01:41:33;100280.75;;;5.98;100.00
35908;BME280;22003;50.320;8.054;2024-03-22T01:43:59;100254.81;;;6.07;100.00
35908;BME280;22003;50.320;8.054;2024-03-22T01:46:24;100278.78;;;5.84;100.00
35908;BME280;22003;50.320;8.054;2024-03-22T01:48:50;100280.59;;;5.65;100.00
35908;BME280;22003;50.320;8.054;2024-03-22T01:51:16;100275.03;;;5.53;100.00
35908;BME280;22003;50.320;8.054;2024-03-22T01:53:41;100281.22;;;5.70;100.00
35908;BME280;22003;50.320;8.054;2024-03-22T01:56:07;100275.03;;;5.71;100.00
35908;BME280;22003;50.320;8.054;2024-03-22T01:58:33;100279.84;;;5.80;100.00
35908;BME280;22003;50.320;8.054;2024-03-22T02:00:58;100243.28;;;5.75;100.00
35908;BME280;22003;50.320;8.054;2024-03-22T02:03:23;100276.06;;;5.86;100.00
35908;BME280;22003;50.320;8.054;2024-03-22T02:05:49;100270.53;;;5.92;100.00
35908;BME280;22003;50.320;8.054;2024-03-22T02:08:14;100268.09;;;5.87;100.00
35908;BME280;22003;50.320;8.054;2024-03-22T02:10:39;100273.75;;;6.31;100.00
35908;BME280;22003;50.320;8.054;2024-03-22T02:13:04;100262.16;;;6.18;100.00
35908;BME280;22003;50.320;8.054;2024-03-22T02:15:30;100266.50;;;6.02;100.00
35908;BME280;22003;50.320;8.054;2024-03-22T02:17:56;100264.63;;;6.21;100.00
35908;BME280;22003;50.320;8.054;2024-03-22T02:20:21;100257.78;;;6.01;100.00
35908;BME280;22003;50.320;8.054;2024-03-22T02:22:47;100258.00;;;5.97;100.00
35908;BME280;22003;50.320;8.054;2024-03-22T02:25:12;100257.75;;;5.84;100.00
35908;BME280;22003;50.320;8.054;2024-03-22T02:27:38;100209.19;;;5.56;100.00
35908;BME280;22003;50.320;8.054;2024-03-22T02:30:04;100241.09;;;5.66;100.00
35908;BME280;22003;50.320;8.054;2024-03-22T02:32:30;100239.09;;;5.71;100.00
35908;BME280;22003;50.320;8.054;2024-03-22T02:34:55;100240.09;;;5.69;100.00
35908;BME280;22003;50.320;8.054;2024-03-22T02:37:21;100246.63;;;5.43;100.00
35908;BME280;22003;50.320;8.054;2024-03-22T02:39:46;100236.44;;;5.54;100.00
35908;BME280;22003;50.320;8.054;2024-03-22T02:42:11;100229.38;;;5.56;100.00
35908;BME280;22003;50.320;8.054;2024-03-22T02:44:37;100225.94;;;5.54;100.00
35908;BME280;22003;50.320;8.054;2024-03-22T02:47:08;100227.09;;;5.48;100.00
35908;BME280;22003;50.320;8.054;2024-03-22T02:49:33;100212.69;;;5.38;100.00
35908;BME280;22003;50.320;8.054;2024-03-22T02:51:58;100220.53;;;5.40;100.00
35908;BME280;22003;50.320;8.054;2024-03-22T02:54:24;100214.44;;;5.39;100.00
35908;BME280;22003;50.320;8.054;2024-03-22T02:56:49;100215.44;;;5.54;100.00
35908;BME280;22003;50.320;8.054;2024-03-22T02:59:14;100216.44;;;5.34;100.00
35908;BME280;22003;50.320;8.054;2024-03-22T03:01:39;100200.16;;;5.26;100.00
35908;BME280;22003;50.320;8.054;2024-03-22T03:04:05;100201.03;;;5.26;100.00
35908;BME280;22003;50.320;8.054;2024-03-22T03:06:30;100201.94;;;5.25;100.00
35908;BME280;22003;50.320;8.054;2024-03-22T03:08:55;100191.13;;;5.32;100.00
35908;BME280;22003;50.320;8.054;2024-03-22T03:11:21;100177.97;;;5.14;100.00
35908;BME280;22003;50.320;8.054;2024-03-22T03:13:46;100191.41;;;5.44;100.00
35908;BME280;22003;50.320;8.054;2024-03-22T03:16:11;100183.03;;;5.36;100.00
35908;BME280;22003;50.320;8.054;2024-03-22T03:18:36;100181.75;;;5.45;100.00
35908;BME280;22003;50.320;8.054;2024-03-22T03:21:02;100171.84;;;5.67;100.00
35908;BME280;22003;50.320;8.054;2024-03-22T03:23:27;100184.16;;;5.67;100.00
35908;BME280;22003;50.320;8.054;2024-03-22T03:25:52;100175.47;;;5.47;100.00
35908;BME280;22003;50.320;8.054;2024-03-22T03:28:18;100179.03;;;5.46;100.00
35908;BME280;22003;50.320;8.054;2024-03-22T03:30:44;100172.22;;;5.42;100.00
35908;BME280;22003;50.320;8.054;2024-03-22T03:33:09;100171.53;;;5.39;100.00
35908;BME280;22003;50.320;8.054;2024-03-22T03:35:35;100163.66;;;5.39;100.00
35908;BME280;22003;50.320;8.054;2024-03-22T03:38:00;100158.53;;;5.53;100.00
35908;BME280;22003;50.320;8.054;2024-03-22T03:40:25;100154.03;;;5.55;100.00
35908;BME280;22003;50.320;8.054;2024-03-22T03:42:51;100156.94;;;5.50;100.00
35908;BME280;22003;50.320;8.054;2024-03-22T03:45:17;100153.59;;;5.64;100.00
35908;BME280;22003;50.320;8.054;2024-03-22T03:47:42;100145.53;;;5.33;100.00
35908;BME280;22003;50.320;8.054;2024-03-22T03:50:08;100161.41;;;5.31;100.00
35908;BME280;22003;50.320;8.054;2024-03-22T03:52:33;100122.75;;;5.16;100.00
35908;BME280;22003;50.320;8.054;2024-03-22T03:54:58;100144.03;;;5.28;100.00
35908;BME280;22003;50.320;8.054;2024-03-22T03:57:24;100134.59;;;5.24;100.00
35908;BME280;22003;50.320;8.054;2024-03-22T03:59:49;100102.56;;;5.16;100.00
35908;BME280;22003;50.320;8.054;2024-03-22T04:02:14;100138.38;;;5.53;100.00
35908;BME280;22003;50.320;8.054;2024-03-22T04:04:40;100137.66;;;5.67;100.00
35908;BME280;22003;50.320;8.054;2024-03-22T04:07:05;100137.50;;;5.53;100.00
35908;BME280;22003;50.320;8.054;2024-03-22T04:09:30;100137.84;;;5.47;100.00
35908;BME280;22003;50.320;8.054;2024-03-22T04:11:57;100131.97;;;5.42;100.00
35908;BME280;22003;50.320;8.054;2024-03-22T04:14:24;100132.81;;;5.42;100.00
35908;BME280;22003;50.320;8.054;2024-03-22T04:16:50;100133.41;;;5.47;100.00
35908;BME280;22003;50.320;8.054;2024-03-22T04:19:15;100135.94;;;5.83;100.00
35908;BME280;22003;50.320;8.054;2024-03-22T04:21:40;100134.53;;;5.76;100.00
35908;BME280;22003;50.320;8.054;2024-03-22T04:24:06;100134.19;;;5.67;100.00
35908;BME280;22003;50.320;8.054;2024-03-22T04:26:31;100113.09;;;5.51;100.00
35908;BME280;22003;50.320;8.054;2024-03-22T04:28:56;100131.91;;;5.76;100.00
35908;BME280;22003;50.320;8.054;2024-03-22T04:31:22;100133.38;;;5.82;100.00
35908;BME280;22003;50.320;8.054;2024-03-22T04:33:47;100101.78;;;5.66;100.00
35908;BME280;22003;50.320;8.054;2024-03-22T04:36:13;100134.63;;;5.92;100.00
35908;BME280;22003;50.320;8.054;2024-03-22T04:38:38;100127.25;;;5.99;100.00
35908;BME280;22003;50.320;8.054;2024-03-22T04:41:03;100126.81;;;5.91;100.00
35908;BME280;22003;50.320;8.054;2024-03-22T04:43:29;100128.47;;;6.09;100.00
35908;BME280;22003;50.320;8.054;2024-03-22T04:45:54;100140.25;;;6.35;100.00
35908;BME280;22003;50.320;8.054;2024-03-22T04:48:21;100092.25;;;5.81;100.00
35908;BME280;22003;50.320;8.054;2024-03-22T04:50:48;100132.19;;;6.05;100.00
35908;BME280;22003;50.320;8.054;2024-03-22T04:53:16;100087.16;;;5.78;100.00
35908;BME280;22003;50.320;8.054;2024-03-22T04:55:44;100104.41;;;5.83;100.00
35908;BME280;22003;50.320;8.054;2024-03-22T04:58:22;100124.06;;;6.09;100.00
35908;BME280;22003;50.320;8.054;2024-03-22T05:00:49;100096.13;;;5.91;100.00
35908;BME280;22003;50.320;8.054;2024-03-22T05:03:15;100080.66;;;5.85;100.00
35908;BME280;22003;50.320;8.054;2024-03-22T05:05:41;100093.50;;;5.91;100.00
35908;BME280;22003;50.320;8.054;2024-03-22T05:08:07;100122.38;;;6.08;100.00
35908;BME280;22003;50.320;8.054;2024-03-22T05:10:32;100118.75;;;6.11;100.00
35908;BME280;22003;50.320;8.054;2024-03-22T05:12:58;100101.19;;;6.12;100.00
35908;BME280;22003;50.320;8.054;2024-03-22T05:15:24;100130.44;;;6.21;100.00
35908;BME280;22003;50.320;8.054;2024-03-22T05:17:53;100124.75;;;6.13;100.00
35908;BME280;22003;50.320;8.054;2024-03-22T05:20:20;100120.19;;;6.17;100.00
35908;BME280;22003;50.320;8.054;2024-03-22T05:22:46;100093.91;;;5.99;100.00
35908;BME280;22003;50.320;8.054;2024-03-22T05:25:12;100117.28;;;6.05;100.00
35908;BME280;22003;50.320;8.054;2024-03-22T05:27:38;100117.53;;;6.01;100.00
35908;BME280;22003;50.320;8.054;2024-03-22T05:30:03;100116.13;;;5.94;100.00
35908;BME280;22003;50.320;8.054;2024-03-22T05:32:32;100113.41;;;6.28;100.00
35908;BME280;22003;50.320;8.054;2024-03-22T05:34:57;100114.06;;;6.16;100.00
35908;BME280;22003;50.320;8.054;2024-03-22T05:37:23;100113.78;;;6.05;100.00
35908;BME280;22003;50.320;8.054;2024-03-22T05:39:48;100106.50;;;6.10;100.00
35908;BME280;22003;50.320;8.054;2024-03-22T05:42:14;100101.94;;;6.29;100.00
35908;BME280;22003;50.320;8.054;2024-03-22T05:44:39;100103.38;;;6.19;100.00
35908;BME280;22003;50.320;8.054;2024-03-22T05:47:04;100097.03;;;6.23;100.00
35908;BME280;22003;50.320;8.054;2024-03-22T05:49:30;100100.41;;;6.25;100.00
35908;BME280;22003;50.320;8.054;2024-03-22T05:51:55;100101.25;;;6.26;100.00
35908;BME280;22003;50.320;8.054;2024-03-22T05:54:21;100097.19;;;6.20;100.00
35908;BME280;22003;50.320;8.054;2024-03-22T05:56:46;100093.56;;;6.23;100.00
35908;BME280;22003;50.320;8.054;2024-03-22T05:59:11;100090.38;;;6.16;100.00
35908;BME280;22003;50.320;8.054;2024-03-22T06:01:37;100092.84;;;6.19;100.00
35908;BME280;22003;50.320;8.054;2024-03-22T06:04:04;100094.97;;;6.13;100.00
35908;BME280;22003;50.320;8.054;2024-03-22T06:06:29;100091.53;;;6.28;100.00
35908;BME280;22003;50.320;8.054;2024-03-22T06:08:55;100084.63;;;6.25;100.00
35908;BME280;22003;50.320;8.054;2024-03-22T06:11:22;100089.66;;;6.46;100.00
35908;BME280;22003;50.320;8.054;2024-03-22T06:13:47;100087.88;;;6.46;100.00
35908;BME280;22003;50.320;8.054;2024-03-22T06:16:12;100089.06;;;6.41;100.00
35908;BME280;22003;50.320;8.054;2024-03-22T06:18:39;100082.59;;;6.30;100.00
35908;BME280;22003;50.320;8.054;2024-03-22T06:21:04;100053.50;;;6.18;100.00
35908;BME280;22003;50.320;8.054;2024-03-22T06:23:30;100083.03;;;6.39;100.00
35908;BME280;22003;50.320;8.054;2024-03-22T06:25:56;100037.88;;;6.30;100.00
35908;BME280;22003;50.320;8.054;2024-03-22T06:28:22;100076.03;;;6.69;100.00
35908;BME280;22003;50.320;8.054;2024-03-22T06:30:47;100059.31;;;6.70;100.00
35908;BME280;22003;50.320;8.054;2024-03-22T06:33:13;100072.91;;;6.78;100.00
35908;BME280;22003;50.320;8.054;2024-03-22T06:35:38;100066.91;;;6.91;100.00
35908;BME280;22003;50.320;8.054;2024-03-22T06:38:03;100055.19;;;6.96;100.00
35908;BME280;22003;50.320;8.054;2024-03-22T06:40:29;100059.47;;;7.13;100.00
35908;BME280;22003;50.320;8.054;2024-03-22T06:42:55;100053.94;;;7.18;100.00
35908;BME280;22003;50.320;8.054;2024-03-22T06:45:20;100049.41;;;7.20;100.00
35908;BME280;22003;50.320;8.054;2024-03-22T06:47:46;100055.16;;;7.26;100.00
35908;BME280;22003;50.320;8.054;2024-03-22T06:50:11;100026.63;;;7.19;100.00
35908;BME280;22003;50.320;8.054;2024-03-22T06:52:36;100045.03;;;7.63;100.00
35908;BME280;22003;50.320;8.054;2024-03-22T06:55:02;100044.75;;;7.53;100.00
35908;BME280;22003;50.320;8.054;2024-03-22T06:57:28;100041.28;;;7.67;100.00
35908;BME280;22003;50.320;8.054;2024-03-22T06:59:54;100022.94;;;7.21;100.00
35908;BME280;22003;50.320;8.054;2024-03-22T07:02:19;100041.97;;;7.26;100.00
35908;BME280;22003;50.320;8.054;2024-03-22T07:04:45;100036.00;;;7.38;100.00
35908;BME280;22003;50.320;8.054;2024-03-22T07:07:11;100041.94;;;7.85;100.00
35908;BME280;22003;50.320;8.054;2024-03-22T07:09:36;100031.66;;;7.94;100.00
35908;BME280;22003;50.320;8.054;2024-03-22T07:12:01;100035.50;;;8.17;100.00
35908;BME280;22003;50.320;8.054;2024-03-22T07:14:27;100027.91;;;8.26;100.00
35908;BME280;22003;50.320;8.054;2024-03-22T07:16:52;100016.06;;;8.18;100.00
35908;BME280;22003;50.320;8.054;2024-03-22T07:19:20;100034.78;;;8.42;100.00
35908;BME280;22003;50.320;8.054;2024-03-22T07:21:46;100028.06;;;8.51;100.00
35908;BME280;22003;50.320;8.054;2024-03-22T07:24:11;100028.00;;;8.65;100.00
35908;BME280;22003;50.320;8.054;2024-03-22T07:26:37;100023.06;;;8.61;100.00
35908;BME280;22003;50.320;8.054;2024-03-22T07:29:02;100023.78;;;8.63;100.00
35908;BME280;22003;50.320;8.054;2024-03-22T07:31:27;100026.97;;;8.68;100.00
35908;BME280;22003;50.320;8.054;2024-03-22T07:33:53;100015.31;;;8.97;100.00
35908;BME280;22003;50.320;8.054;2024-03-22T07:36:18;100019.97;;;8.94;100.00
35908;BME280;22003;50.320;8.054;2024-03-22T07:38:44;100014.28;;;9.00;100.00
35908;BME280;22003;50.320;8.054;2024-03-22T07:41:09;100019.28;;;8.78;100.00
35908;BME280;22003;50.320;8.054;2024-03-22T07:43:35;100015.66;;;9.06;100.00
35908;BME280;22003;50.320;8.054;2024-03-22T07:46:00;100023.28;;;9.23;100.00
35908;BME280;22003;50.320;8.054;2024-03-22T07:48:25;100016.19;;;9.11;100.00
35908;BME280;22003;50.320;8.054;2024-03-22T07:51:00;99983.41;;;9.26;100.00
35908;BME280;22003;50.320;8.054;2024-03-22T07:53:26;100010.91;;;9.49;100.00
35908;BME280;22003;50.320;8.054;2024-03-22T07:55:51;100009.72;;;9.66;100.00
35908;BME280;22003;50.320;8.054;2024-03-22T07:58:17;100007.25;;;10.01;100.00
35908;BME280;22003;50.320;8.054;2024-03-22T08:00:42;100002.38;;;10.08;100.00
35908;BME280;22003;50.320;8.054;2024-03-22T08:03:08;99995.66;;;10.51;100.00
35908;BME280;22003;50.320;8.054;2024-03-22T08:05:38;100001.19;;;10.48;100.00
35908;BME280;22003;50.320;8.054;2024-03-22T08:08:04;99991.88;;;10.67;100.00
35908;BME280;22003;50.320;8.054;2024-03-22T08:10:29;99990.63;;;10.60;100.00
35908;BME280;22003;50.320;8.054;2024-03-22T08:12:55;99982.63;;;10.72;100.00
35908;BME280;22003;50.320;8.054;2024-03-22T08:15:21;99982.72;;;10.71;100.00
35908;BME280;22003;50.320;8.054;2024-03-22T08:17:46;99977.78;;;11.01;100.00
35908;BME280;22003;50.320;8.054;2024-03-22T08:20:11;99978.34;;;11.51;100.00
35908;BME280;22003;50.320;8.054;2024-03-22T08:22:36;99973.66;;;11.66;100.00
35908;BME280;22003;50.320;8.054;2024-03-22T08:25:02;99968.69;;;11.73;100.00
35908;BME280;22003;50.320;8.054;2024-03-22T08:27:29;99961.69;;;11.72;98.85
35908;BME280;22003;50.320;8.054;2024-03-22T08:29:54;99959.66;;;11.86;100.00
35908;BME280;22003;50.320;8.054;2024-03-22T08:32:19;99968.16;;;12.24;98.79
35908;BME280;22003;50.320;8.054;2024-03-22T08:34:45;99950.78;;;12.20;97.55
35908;BME280;22003;50.320;8.054;2024-03-22T08:37:11;99935.81;;;12.51;96.87
35908;BME280;22003;50.320;8.054;2024-03-22T08:39:36;99950.50;;;12.87;95.78
35908;BME280;22003;50.320;8.054;2024-03-22T08:42:02;99942.22;;;13.01;94.92
35908;BME280;22003;50.320;8.054;2024-03-22T08:44:30;99946.16;;;13.07;91.20
35908;BME280;22003;50.320;8.054;2024-03-22T08:46:55;99937.66;;;13.34;88.53
35908;BME280;22003;50.320;8.054;2024-03-22T08:49:20;99926.63;;;13.79;81.16
35908;BME280;22003;50.320;8.054;2024-03-22T08:51:46;99903.72;;;13.57;78.30
35908;BME280;22003;50.320;8.054;2024-03-22T08:54:11;99908.41;;;13.74;78.48
35908;BME280;22003;50.320;8.054;2024-03-22T08:56:37;99916.44;;;14.03;76.30
35908;BME280;22003;50.320;8.054;2024-03-22T08:59:02;99895.22;;;13.72;76.02
35908;BME280;22003;50.320;8.054;2024-03-22T09:01:27;99909.41;;;13.83;76.63
35908;BME280;22003;50.320;8.054;2024-03-22T09:03:52;99909.03;;;14.26;75.96
35908;BME280;22003;50.320;8.054;2024-03-22T09:06:18;99869.34;;;14.04;75.36
35908;BME280;22003;50.320;8.054;2024-03-22T09:08:44;99884.94;;;14.27;74.09
35908;BME280;22003;50.320;8.054;2024-03-22T09:11:10;99905.13;;;14.40;74.19
35908;BME280;22003;50.320;8.054;2024-03-22T09:13:36;99897.88;;;14.51;73.14
35908;BME280;22003;50.320;8.054;2024-03-22T09:16:01;99890.97;;;14.68;72.58
35908;BME280;22003;50.320;8.054;2024-03-22T09:18:27;99879.72;;;14.94;71.54
35908;BME280;22003;50.320;8.054;2024-03-22T09:20:53;99884.38;;;15.29;70.06
35908;BME280;22003;50.320;8.054;2024-03-22T09:23:19;99890.63;;;15.38;70.03
35908;BME280;22003;50.320;8.054;2024-03-22T09:25:48;99891.13;;;15.23;69.61
35908;BME280;22003;50.320;8.054;2024-03-22T09:28:13;99865.69;;;15.56;69.05
35908;BME280;22003;50.320;8.054;2024-03-22T09:30:42;99888.78;;;15.48;68.60
35908;BME280;22003;50.320;8.054;2024-03-22T09:33:08;99884.13;;;15.50;70.26
35908;BME280;22003;50.320;8.054;2024-03-22T09:35:34;99846.28;;;14.99;69.99
35908;BME280;22003;50.320;8.054;2024-03-22T09:37:59;99878.31;;;14.90;70.06
35908;BME280;22003;50.320;8.054;2024-03-22T09:40:25;99870.28;;;14.99;70.49
35908;BME280;22003;50.320;8.054;2024-03-22T09:42:52;99870.22;;;15.19;70.47
35908;BME280;22003;50.320;8.054;2024-03-22T09:45:18;99871.34;;;15.16;70.59
35908;BME280;22003;50.320;8.054;2024-03-22T09:47:45;99835.41;;;15.11;70.28
35908;BME280;22003;50.320;8.054;2024-03-22T09:50:12;99868.50;;;15.27;69.55
35908;BME280;22003;50.320;8.054;2024-03-22T09:52:38;99854.66;;;15.42;69.98
35908;BME280;22003;50.320;8.054;2024-03-22T09:55:07;99858.91;;;15.35;69.59
35908;BME280;22003;50.320;8.054;2024-03-22T09:57:36;99860.00;;;15.42;69.73
35908;BME280;22003;50.320;8.054;2024-03-22T10:00:03;99848.06;;;15.36;68.93
35908;BME280;22003;50.320;8.054;2024-03-22T10:02:30;99838.50;;;15.71;68.79
35908;BME280;22003;50.320;8.054;2024-03-22T10:04:56;99843.72;;;16.08;68.47
35908;BME280;22003;50.320;8.054;2024-03-22T10:07:21;99843.94;;;16.15;67.22
35908;BME280;22003;50.320;8.054;2024-03-22T10:09:47;99840.47;;;16.58;66.35
35908;BME280;22003;50.320;8.054;2024-03-22T10:12:12;99838.47;;;17.04;66.26
35908;BME280;22003;50.320;8.054;2024-03-22T10:14:37;99836.50;;;17.14;65.50
35908;BME280;22003;50.320;8.054;2024-03-22T10:17:05;99831.50;;;17.11;64.93
35908;BME280;22003;50.320;8.054;2024-03-22T10:19:30;99827.56;;;16.97;64.85
35908;BME280;22003;50.320;8.054;2024-03-22T10:22:03;99820.75;;;16.59;65.01
35908;BME280;22003;50.320;8.054;2024-03-22T10:24:29;99832.91;;;16.27;66.92
35908;BME280;22003;50.320;8.054;2024-03-22T10:26:55;99827.59;;;16.35;66.92
35908;BME280;22003;50.320;8.054;2024-03-22T10:29:21;99816.53;;;16.30;67.53
35908;BME280;22003;50.320;8.054;2024-03-22T10:31:54;99814.16;;;16.45;66.65
35908;BME280;22003;50.320;8.054;2024-03-22T10:34:24;99808.19;;;16.51;65.50
35908;BME280;22003;50.320;8.054;2024-03-22T10:36:50;99809.16;;;16.06;65.21
35908;BME280;22003;50.320;8.054;2024-03-22T10:39:19;99783.44;;;16.05;66.27
35908;BME280;22003;50.320;8.054;2024-03-22T10:41:48;99800.03;;;15.81;67.11
35908;BME280;22003;50.320;8.054;2024-03-22T10:44:14;99797.69;;;15.96;66.73
35908;BME280;22003;50.320;8.054;2024-03-22T10:46:47;99793.19;;;15.97;66.61
35908;BME280;22003;50.320;8.054;2024-03-22T10:49:19;99793.25;;;16.49;66.62
35908;BME280;22003;50.320;8.054;2024-03-22T10:51:52;99794.94;;;16.94;64.94
35908;BME280;22003;50.320;8.054;2024-03-22T10:54:21;99779.09;;;17.08;65.56
35908;BME280;22003;50.320;8.054;2024-03-22T10:56:49;99778.41;;;17.49;63.83
35908;BME280;22003;50.320;8.054;2024-03-22T10:59:19;99761.25;;;17.17;63.14
35908;BME280;22003;50.320;8.054;2024-03-22T11:01:49;99771.13;;;17.25;63.55
35908;BME280;22003;50.320;8.054;2024-03-22T11:04:19;99754.81;;;17.02;60.54
35908;BME280;22003;50.320;8.054;2024-03-22T11:06:48;99752.94;;;17.36;61.06
35908;BME280;22003;50.320;8.054;2024-03-22T11:09:26;99766.50;;;17.43;60.41
35908;BME280;22003;50.320;8.054;2024-03-22T11:11:53;99752.31;;;17.51;61.26
35908;BME280;22003;50.320;8.054;2024-03-22T11:14:19;99748.75;;;16.92;61.15
35908;BME280;22003;50.320;8.054;2024-03-22T11:16:46;99724.44;;;16.51;62.30
35908;BME280;22003;50.320;8.054;2024-03-22T11:19:11;99749.94;;;16.97;62.74
35908;BME280;22003;50.320;8.054;2024-03-22T11:21:37;99745.31;;;17.07;62.35
35908;BME280;22003;50.320;8.054;2024-03-22T11:24:04;99747.88;;;17.25;62.37
35908;BME280;22003;50.320;8.054;2024-03-22T11:26:29;99740.44;;;17.03;62.79
35908;BME280;22003;50.320;8.054;2024-03-22T11:28:55;99744.69;;;17.22;62.56
35908;BME280;22003;50.320;8.054;2024-03-22T11:31:20;99725.63;;;17.25;61.06
35908;BME280;22003;50.320;8.054;2024-03-22T11:33:51;99721.41;;;17.14;60.38
35908;BME280;22003;50.320;8.054;2024-03-22T11:36:17;99723.66;;;17.43;59.86
35908;BME280;22003;50.320;8.054;2024-03-22T11:38:42;99715.91;;;17.32;59.27
35908;BME280;22003;50.320;8.054;2024-03-22T11:41:08;99712.66;;;17.04;58.76
35908;BME280;22003;50.320;8.054;2024-03-22T11:43:34;99718.09;;;17.28;59.00
35908;BME280;22003;50.320;8.054;2024-03-22T11:45:59;99714.06;;;17.16;59.85
35908;BME280;22003;50.320;8.054;2024-03-22T11:48:27;99718.72;;;17.14;60.32
35908;BME280;22003;50.320;8.054;2024-03-22T11:50:52;99704.25;;;16.91;59.70
35908;BME280;22003;50.320;8.054;2024-03-22T11:53:17;99705.28;;;16.98;60.59
35908;BME280;22003;50.320;8.054;2024-03-22T11:55:43;99698.09;;;16.98;60.84
35908;BME280;22003;50.320;8.054;2024-03-22T11:58:11;99702.13;;;17.02;60.44
35908;BME280;22003;50.320;8.054;2024-03-22T12:00:37;99693.34;;;17.42;60.95
35908;BME280;22003;50.320;8.054;2024-03-22T12:03:04;99690.81;;;17.25;60.94
35908;BME280;22003;50.320;8.054;2024-03-22T12:05:30;99686.63;;;16.72;60.52
35908;BME280;22003;50.320;8.054;2024-03-22T12:07:56;99688.22;;;16.64;61.23
35908;BME280;22003;50.320;8.054;2024-03-22T12:10:21;99687.91;;;16.68;61.05
35908;BME280;22003;50.320;8.054;2024-03-22T12:12:46;99681.97;;;16.82;60.75
35908;BME280;22003;50.320;8.054;2024-03-22T12:15:12;99676.13;;;16.78;60.98
35908;BME280;22003;50.320;8.054;2024-03-22T12:17:37;99679.34;;;16.64;60.63
35908;BME280;22003;50.320;8.054;2024-03-22T12:20:06;99681.66;;;16.51;60.88
35908;BME280;22003;50.320;8.054;2024-03-22T12:22:33;99674.63;;;16.50;61.06
35908;BME280;22003;50.320;8.054;2024-03-22T12:24:59;99663.41;;;16.20;61.39
35908;BME280;22003;50.320;8.054;2024-03-22T12:27:24;99671.25;;;16.48;62.39
35908;BME280;22003;50.320;8.054;2024-03-22T12:29:49;99663.50;;;16.36;61.41
35908;BME280;22003;50.320;8.054;2024-03-22T12:32:15;99666.75;;;16.48;61.35
35908;BME280;22003;50.320;8.054;2024-03-22T12:34:40;99663.09;;;16.49;61.82
35908;BME280;22003;50.320;8.054;2024-03-22T12:37:05;99672.44;;;16.19;61.51
35908;BME280;22003;50.320;8.054;2024-03-22T12:39:31;99656.47;;;16.27;61.46
35908;BME280;22003;50.320;8.054;2024-03-22T12:41:57;99665.03;;;16.13;61.60
35908;BME280;22003;50.320;8.054;2024-03-22T12:44:22;99658.50;;;16.07;61.38
35908;BME280;22003;50.320;8.054;2024-03-22T12:46:48;99659.00;;;15.85;62.03